KBKL/BKL METAR and TAF weather

Enter ICAO airport designator
Station Type Date Time Source
KBKL METAR 2018/01/21 11:53 UTC NOAA

KBKL 211153Z AUTO 14006KT 3SM BR OVC011 04/02 A3008 RMK AO2 SLP191 T00390022 10056 20039 56001


Station Type Date Time Source
KBKL Decoded METAR 2018/01/21 11:53 UTC NOAA

CLEVELAND BURKE LAKEFRONT, OH, United States (KBKL) 41-32N 81-40W 184M
Jan 21, 2018 - 06:53 AM EST / 2018.01.21 1153 UTC
Wind: from the SE (140 degrees) at 7 MPH (6 KT):0
Visibility: 3 mile(s):0
Sky conditions: overcast
Weather: mist
Temperature: 39.0 F (3.9 C)
Dew Point: 36.0 F (2.2 C)
Relative Humidity: 88%
Pressure (altimeter): 30.08 in. Hg (1018 hPa)
Pressure tendency: 0.00 inches (0.1 hPa) lower than three hours ago
ob: KBKL 211153Z AUTO 14006KT 3SM BR OVC011 04/02 A3008 RMK AO2 SLP191 T00390022 10056 20039 56001
cycle: 12

Station Type Date Time Source
KBKL TAF UTC NOAA

Error!


Example: see airport list